Time;durP1;ratioP1;P1;durP2;ratioP2;P2;SDS_P1;SDS_P2;PMS_P1;PMS_P2;Temp;Humidity;BMP_temperature;BMP_pressure;BME280_temperature;BME280_humidity;BME280_pressure;Samples;Min_cycle;Max_cycle;Signal;HPM_P1;HPM_P2
2022/03/28 00:00:18;;;;;;;14.50;11.73;;;;;;;12.81;53.27;99807.94;4141073;28;20272;-67
2022/03/28 00:02:20;;;;;;;14.93;12.00;;;;;;;12.66;53.22;99799.81;4140243;28;20325;-67
2022/03/28 00:04:22;;;;;;;14.40;12.50;;;;;;;13.67;51.51;99749.22;4138477;28;20255;-66
2022/03/28 00:06:24;;;;;;;14.50;11.97;;;;;;;13.25;52.18;99764.72;4139391;28;20823;-67
2022/03/28 00:08:26;;;;;;;15.03;12.53;;;;;;;13.66;51.40;99774.28;4140119;28;20729;-67
2022/03/28 00:10:27;;;;;;;15.13;10.40;;;;;;;12.23;53.80;99804.56;4141926;28;20760;-67
2022/03/28 00:12:29;;;;;;;18.60;11.17;;;;;;;11.49;56.10;99754.75;4144018;28;20237;-67
2022/03/28 00:14:31;;;;;;;14.37;10.20;;;;;;;11.89;55.00;99750.44;4141848;28;20316;-67
2022/03/28 00:16:33;;;;;;;13.23;10.80;;;;;;;12.96;52.48;99736.00;4143181;28;20249;-67
2022/03/28 00:18:35;;;;;;;12.33;10.77;;;;;;;12.74;52.89;99725.09;4143234;28;20236;-67
2022/03/28 00:20:37;;;;;;;14.60;10.67;;;;;;;12.13;54.84;99769.25;4143164;28;20853;-67
2022/03/28 00:22:39;;;;;;;13.30;10.43;;;;;;;12.01;54.82;99756.25;4142587;28;20273;-67
2022/03/28 00:24:41;;;;;;;14.40;10.57;;;;;;;11.72;56.14;99714.97;4151227;28;20670;-68
2022/03/28 00:26:43;;;;;;;12.37;10.00;;;;;;;11.27;56.42;99740.22;4145718;28;20265;-67
2022/03/28 00:28:45;;;;;;;13.40;9.83;;;;;;;10.74;57.85;99733.41;4142936;28;20312;-68
2022/03/28 00:30:48;;;;;;;12.07;9.37;;;;;;;11.11;57.41;99716.25;4143479;28;20232;-68
2022/03/28 00:32:49;;;;;;;12.87;9.50;;;;;;;10.82;58.14;99717.50;4143999;28;20279;-68
2022/03/28 00:34:51;;;;;;;14.67;10.10;;;;;;;10.92;57.81;99715.56;4144556;28;20315;-68
2022/03/28 00:36:53;;;;;;;15.73;10.13;;;;;;;11.43;57.16;99688.00;4148440;28;20256;-68
2022/03/28 00:38:54;;;;;;;12.23;9.70;;;;;;;11.17;57.05;99715.59;4143307;28;20299;-68
2022/03/28 00:41:01;;;;;;;13.30;10.23;;;;;;;10.77;58.52;99707.34;4143146;28;20299;-67
2022/03/28 00:43:05;;;;;;;13.27;10.00;;;;;;;10.47;59.52;99703.38;4142278;28;20257;-68
2022/03/28 00:45:07;;;;;;;13.57;9.57;;;;;;;10.68;59.49;99691.50;4149597;28;20324;-68
2022/03/28 00:47:09;;;;;;;14.53;10.77;;;;;;;10.69;59.32;99704.63;4141686;28;20799;-67
2022/03/28 00:49:12;;;;;;;11.80;9.17;;;;;;;11.15;58.25;99685.66;4142773;28;20337;-68
2022/03/28 00:51:14;;;;;;;13.00;9.77;;;;;;;11.26;58.47;99692.50;4143285;28;20335;-68
2022/03/28 00:53:16;;;;;;;12.03;8.87;;;;;;;10.80;59.43;99698.19;4141912;28;20299;-68
2022/03/28 00:55:18;;;;;;;13.17;9.60;;;;;;;11.57;57.40;99692.66;4151813;28;20918;-68
2022/03/28 00:57:20;;;;;;;14.27;9.57;;;;;;;11.03;58.44;99703.75;4143162;28;20352;-68
2022/03/28 00:59:21;;;;;;;13.00;10.10;;;;;;;10.69;58.71;99715.25;4142770;28;20256;-68
2022/03/28 01:01:23;;;;;;;12.37;9.50;;;;;;;10.59;59.52;99699.44;4142292;28;20982;-68
2022/03/28 01:03:25;;;;;;;14.17;9.53;;;;;;;10.57;59.84;99696.13;4141803;28;20229;-68
2022/03/28 01:05:27;;;;;;;13.73;10.37;;;;;;;10.84;59.85;99688.09;4143124;28;20248;-68
2022/03/28 01:07:29;;;;;;;11.27;9.60;;;;;;;11.45;58.08;99683.34;4142637;28;20264;-68
2022/03/28 01:09:30;;;;;;;13.00;9.83;;;;;;;11.33;58.35;99694.31;4142137;28;20319;-68
2022/03/28 01:11:34;;;;;;;13.00;9.60;;;;;;;11.24;58.14;99700.66;4142361;28;20641;-68
2022/03/28 01:13:38;;;;;;;12.70;9.70;;;;;;;11.91;56.45;99667.69;4145352;28;20252;-68
2022/03/28 01:15:39;;;;;;;13.03;9.80;;;;;;;11.88;56.79;99673.34;4141335;28;20676;-68
2022/03/28 01:20:02;;;;;;;12.60;9.40;;;;;;;13.03;53.70;99624.88;4140603;28;20233;-68
2022/03/28 01:22:04;;;;;;;12.40;9.73;;;;;;;14.06;50.35;99585.19;4142588;28;20257;-68
2022/03/28 01:24:06;;;;;;;14.57;10.57;;;;;;;11.67;56.02;99745.75;4138593;28;20811;-68
2022/03/28 01:26:08;;;;;;;14.30;9.80;;;;;;;10.99;58.03;99715.72;4145511;28;20257;-68
2022/03/28 01:28:10;;;;;;;15.47;10.57;;;;;;;11.26;57.83;99697.81;4154241;28;20838;-68
2022/03/28 01:30:12;;;;;;;15.70;10.13;;;;;;;11.81;56.81;99673.16;4143277;28;20685;-67
2022/03/28 01:32:13;;;;;;;11.90;9.27;;;;;;;13.26;52.78;99622.16;4142641;28;20229;-68
2022/03/28 01:34:17;;;;;;;11.67;9.77;;;;;;;11.55;56.83;99722.13;4142294;28;20710;-67
2022/03/28 01:36:24;;;;;;;12.80;9.63;;;;;;;10.92;57.39;99730.66;4143283;28;20233;-68
2022/03/28 01:38:25;;;;;;;14.17;10.00;;;;;;;10.43;59.40;99707.34;4146167;28;20320;-68
2022/03/28 01:40:29;;;;;;;13.57;9.97;;;;;;;10.73;58.21;99699.81;4141757;28;20252;-68
2022/03/28 01:42:30;;;;;;;13.50;9.53;;;;;;;10.78;59.24;99708.19;4141884;28;20284;-68
2022/03/28 01:44:32;;;;;;;11.90;9.50;;;;;;;11.04;58.60;99696.59;4148559;28;20232;-67
2022/03/28 01:46:41;;;;;;;15.37;9.53;;;;;;;12.05;55.49;99647.50;4143279;28;20264;-67
2022/03/28 01:48:43;;;;;;;13.47;10.00;;;;;;;12.40;54.52;99651.53;4142659;28;20730;-68
2022/03/28 01:50:44;;;;;;;12.17;9.73;;;;;;;11.49;57.39;99721.94;4142338;28;20688;-68
2022/03/28 01:52:47;;;;;;;11.17;9.57;;;;;;;11.47;57.35;99689.34;4143384;28;20616;-68
2022/03/28 01:54:48;;;;;;;15.33;10.53;;;;;;;13.43;52.06;99606.81;4152657;28;20226;-68
2022/03/28 01:56:50;;;;;;;14.57;10.93;;;;;;;12.86;52.74;99658.81;4142679;28;20264;-68
2022/03/28 01:58:52;;;;;;;15.20;10.00;;;;;;;11.68;55.95;99695.00;4140994;28;20240;-68
2022/03/28 02:00:53;;;;;;;13.23;10.40;;;;;;;12.85;53.54;99638.47;4141924;28;20637;-67
2022/03/28 02:02:56;;;;;;;13.67;10.33;;;;;;;13.92;50.19;99581.47;4155982;28;20318;-68
2022/03/28 02:04:58;;;;;;;16.23;10.80;;;;;;;13.47;50.85;99628.69;4142716;28;20229;-68
2022/03/28 02:07:00;;;;;;;13.23;10.77;;;;;;;12.60;53.84;99657.28;4142260;28;20261;-68
2022/03/28 02:09:03;;;;;;;14.07;11.13;;;;;;;13.87;50.46;99595.41;4141773;28;20253;-67
2022/03/28 02:11:05;;;;;;;14.53;11.83;;;;;;;14.12;50.76;99587.09;4150453;28;20265;-67
2022/03/28 02:13:06;;;;;;;14.53;11.33;;;;;;;14.14;50.74;99598.41;4146694;28;20280;-67
2022/03/28 02:15:10;;;;;;;16.50;10.90;;;;;;;14.19;50.24;99598.72;4142572;28;20267;-67
2022/03/28 02:17:12;;;;;;;16.93;11.67;;;;;;;14.18;50.64;99605.06;4150987;28;20259;-67
2022/03/28 02:19:14;;;;;;;15.77;11.50;;;;;;;13.46;52.70;99662.56;4144638;28;20272;-67
2022/03/28 02:21:15;;;;;;;17.33;12.80;;;;;;;13.59;52.45;99640.59;4142125;28;20239;-67
2022/03/28 02:23:17;;;;;;;13.33;11.40;;;;;;;13.93;51.61;99609.88;4143662;28;20257;-68
2022/03/28 02:25:19;;;;;;;17.83;12.80;;;;;;;12.91;53.69;99699.19;4149236;28;20291;-68
2022/03/28 02:27:21;;;;;;;17.27;12.80;;;;;;;10.64;59.08;99752.16;4143782;28;20299;-68
2022/03/28 02:29:23;;;;;;;16.07;11.43;;;;;;;11.54;57.75;99685.00;4154502;28;20634;-68
2022/03/28 02:31:24;;;;;;;15.27;11.73;;;;;;;12.15;56.87;99671.28;4158518;28;20232;-68
2022/03/28 02:33:26;;;;;;;15.60;11.43;;;;;;;10.92;59.74;99712.88;4152130;28;20240;-68
2022/03/28 02:35:28;;;;;;;15.27;11.37;;;;;;;10.63;58.80;99708.78;4140785;28;20327;-68
2022/03/28 02:37:30;;;;;;;15.07;11.77;;;;;;;10.44;61.40;99701.88;4142054;28;20550;-67
2022/03/28 02:39:31;;;;;;;15.23;11.27;;;;;;;10.48;60.62;99697.09;4142143;28;20927;-68
2022/03/28 02:41:33;;;;;;;13.90;10.97;;;;;;;12.59;54.43;99610.28;4141336;28;20256;-68
2022/03/28 02:43:35;;;;;;;19.67;12.70;;;;;;;13.72;52.26;99575.81;4141296;28;20321;-68
2022/03/28 02:45:37;;;;;;;16.60;12.77;;;;;;;11.86;56.37;99713.47;4149748;28;20264;-67
2022/03/28 02:47:39;;;;;;;15.60;11.60;;;;;;;11.17;58.92;99702.28;4140102;28;20277;-68
2022/03/28 02:49:40;;;;;;;17.20;12.53;;;;;;;12.74;54.83;99637.03;4142220;28;20315;-68
2022/03/28 02:51:43;;;;;;;18.30;12.63;;;;;;;12.34;55.51;99678.91;4141994;28;20321;-68
2022/03/28 02:53:44;;;;;;;18.47;13.10;;;;;;;12.58;55.01;99658.47;4139727;28;20225;-68
2022/03/28 02:55:47;;;;;;;16.97;12.07;;;;;;;11.74;57.34;99722.78;4144755;28;20315;-68
2022/03/28 02:57:49;;;;;;;17.40;11.63;;;;;;;10.87;59.53;99717.88;4150386;28;20240;-68
2022/03/28 02:59:50;;;;;;;14.13;12.03;;;;;;;12.64;55.49;99626.59;4141860;28;20679;-68
2022/03/28 03:01:52;;;;;;;16.00;11.40;;;;;;;11.79;56.99;99704.47;4141085;28;20345;-68
2022/03/28 03:03:54;;;;;;;17.67;11.67;;;;;;;11.02;59.15;99727.88;4140492;28;20233;-67
2022/03/28 03:05:55;;;;;;;14.37;10.40;;;;;;;11.31;56.77;99701.66;4144213;28;20316;-68
2022/03/28 03:07:57;;;;;;;18.17;11.83;;;;;;;13.12;53.07;99599.75;4150337;28;20264;-68
2022/03/28 03:09:59;;;;;;;15.80;11.83;;;;;;;13.64;51.87;99582.09;4142306;28;20241;-68
2022/03/28 03:12:01;;;;;;;16.73;13.70;;;;;;;13.88;51.31;99588.22;4141566;28;20269;-68
2022/03/28 03:14:03;;;;;;;16.80;13.03;;;;;;;13.86;51.32;99587.56;4140685;28;20309;-68
2022/03/28 03:16:05;;;;;;;18.93;13.37;;;;;;;13.80;51.51;99593.63;4140298;28;20237;-68
2022/03/28 03:18:07;;;;;;;16.53;13.00;;;;;;;13.99;51.26;99589.59;4135387;28;20261;-68
2022/03/28 03:20:10;;;;;;;22.93;16.70;;;;;;;13.83;51.41;99599.44;4147158;28;20232;-68
2022/03/28 03:22:15;;;;;;;28.43;20.43;;;;;;;13.90;51.27;99596.88;4148064;28;20824;-67
2022/03/28 03:24:17;;;;;;;23.67;18.23;;;;;;;11.11;57.95;99758.84;4141154;28;20312;-67
2022/03/28 03:26:19;;;;;;;25.20;18.30;;;;;;;12.25;55.46;99667.44;4141004;28;20261;-67
2022/03/28 03:28:20;;;;;;;27.17;18.70;;;;;;;13.11;52.56;99638.16;4141135;28;20236;-67
2022/03/28 03:30:22;;;;;;;22.20;18.23;;;;;;;12.11;55.55;99674.28;4141690;28;20650;-67
2022/03/28 03:32:24;;;;;;;24.10;18.57;;;;;;;11.79;55.98;99722.28;4141759;28;20236;-67
2022/03/28 03:34:26;;;;;;;23.50;18.63;;;;;;;9.75;61.27;99753.25;4140735;28;20740;-67
2022/03/28 03:36:28;;;;;;;22.57;17.07;;;;;;;10.67;59.83;99689.81;4141410;28;20292;-69
2022/03/28 03:38:30;;;;;;;22.10;17.70;;;;;;;11.80;55.64;99644.88;4141002;28;20363;-67
2022/03/28 03:40:32;;;;;;;21.77;16.20;;;;;;;10.25;59.14;99750.78;4140825;28;20340;-68
2022/03/28 03:42:34;;;;;;;20.27;14.87;;;;;;;9.60;60.53;99729.06;4141056;28;20307;-67
2022/03/28 03:44:35;;;;;;;16.63;12.87;;;;;;;9.44;59.17;99719.13;4140843;28;20237;-67
2022/03/28 03:46:37;;;;;;;25.60;15.57;;;;;;;10.27;57.55;99700.13;4146235;28;20269;-67
2022/03/28 03:48:40;;;;;;;20.40;14.87;;;;;;;9.49;60.08;99712.34;4144322;28;20235;-67
2022/03/28 03:50:42;;;;;;;19.10;13.37;;;;;;;9.59;58.45;99724.75;4144438;28;20256;-67
2022/03/28 03:52:44;;;;;;;21.13;16.00;;;;;;;11.09;54.69;99687.16;4144292;28;20249;-67
2022/03/28 03:54:45;;;;;;;23.67;17.67;;;;;;;12.08;53.11;99658.66;4133649;28;20658;-67
2022/03/28 03:56:47;;;;;;;19.67;15.67;;;;;;;10.49;57.77;99756.41;4142096;28;20237;-69
2022/03/28 03:58:49;;;;;;;17.63;14.50;;;;;;;10.43;57.76;99683.41;4144715;28;20926;-67
2022/03/28 04:00:50;;;;;;;19.50;15.17;;;;;;;12.34;53.07;99635.41;4142750;28;20237;-68
2022/03/28 04:02:53;;;;;;;19.97;15.93;;;;;;;12.85;51.69;99623.28;4147561;28;20423;-67
2022/03/28 04:04:54;;;;;;;22.97;18.07;;;;;;;12.75;51.95;99652.03;4152876;28;20244;-67
2022/03/28 04:06:56;;;;;;;26.53;20.53;;;;;;;11.26;56.11;99711.97;4143432;28;20674;-67
2022/03/28 04:08:58;;;;;;;27.37;20.13;;;;;;;12.53;52.39;99658.16;4143875;28;20668;-68
2022/03/28 04:10:59;;;;;;;29.33;19.83;;;;;;;12.93;51.15;99641.13;4144614;28;20256;-67
2022/03/28 04:13:04;;;;;;;25.20;20.33;;;;;;;13.03;50.79;99649.72;4143590;28;20244;-67
2022/03/28 04:15:07;;;;;;;30.60;22.47;;;;;;;12.64;51.71;99681.75;4144134;28;20237;-68
2022/03/28 04:17:08;;;;;;;28.07;21.83;;;;;;;9.71;59.45;99795.19;4144092;28;20229;-67
2022/03/28 04:19:11;;;;;;;27.17;20.60;;;;;;;8.92;61.80;99764.84;4144327;28;20280;-67
2022/03/28 04:21:13;;;;;;;27.53;19.77;;;;;;;9.44;61.46;99732.38;4143659;28;20328;-68
2022/03/28 04:23:14;;;;;;;19.87;15.33;;;;;;;9.86;59.23;99708.69;4143510;28;20252;-68
2022/03/28 04:25:17;;;;;;;19.93;15.93;;;;;;;9.31;60.00;99730.09;4160354;28;20340;-67
2022/03/28 04:27:19;;;;;;;20.77;15.73;;;;;;;9.14;60.41;99729.94;4159615;28;20323;-68
2022/03/28 04:29:21;;;;;;;20.50;14.50;;;;;;;8.50;58.95;99760.00;4146061;28;20287;-67
2022/03/28 04:31:22;;;;;;;23.13;14.30;;;;;;;7.33;60.69;99742.44;4144046;28;20733;-67
2022/03/28 04:33:25;;;;;;;20.83;14.13;;;;;;;8.24;59.67;99720.03;4140832;28;20237;-67
2022/03/28 04:35:27;;;;;;;18.57;14.57;;;;;;;8.29;59.80;99712.47;4144037;28;20480;-67
2022/03/28 04:37:35;;;;;;;20.93;15.57;;;;;;;8.44;60.53;99708.44;4152926;28;20228;-67
2022/03/28 04:39:37;;;;;;;19.60;15.33;;;;;;;10.01;55.60;99695.66;4141716;28;20530;-67
2022/03/28 04:41:39;;;;;;;20.43;15.87;;;;;;;8.28;59.93;99730.19;4143403;28;20249;-68
2022/03/28 04:43:40;;;;;;;19.03;15.50;;;;;;;9.44;57.51;99696.03;4143221;28;20316;-68
2022/03/28 04:45:42;;;;;;;22.27;15.80;;;;;;;9.07;58.44;99738.66;4151062;28;20375;-67
2022/03/28 04:47:43;;;;;;;22.00;14.77;;;;;;;9.55;57.40;99729.47;4140811;28;20230;-69
2022/03/28 04:49:45;;;;;;;18.20;15.27;;;;;;;9.96;56.86;99686.47;4145069;28;20320;-68
2022/03/28 04:51:47;;;;;;;21.67;15.37;;;;;;;9.46;57.16;99739.19;4153876;28;20324;-68
2022/03/28 04:53:49;;;;;;;17.87;14.47;;;;;;;8.79;59.71;99737.81;4142314;28;20713;-68
2022/03/28 04:55:50;;;;;;;21.70;15.10;;;;;;;8.77;60.61;99722.88;4142613;28;20244;-69
2022/03/28 04:57:52;;;;;;;19.03;15.10;;;;;;;8.93;60.57;99716.97;4143428;28;20253;-68
2022/03/28 04:59:53;;;;;;;18.43;13.93;;;;;;;10.96;53.77;99674.31;4143157;28;20982;-67
2022/03/28 05:01:55;;;;;;;21.53;15.70;;;;;;;9.47;58.41;99772.72;4143707;28;20654;-67
2022/03/28 05:03:57;;;;;;;19.57;15.17;;;;;;;9.48;58.28;99729.25;4142880;28;20251;-68
2022/03/28 05:05:59;;;;;;;19.03;14.40;;;;;;;9.18;58.04;99770.25;4143227;28;20267;-67
2022/03/28 05:08:00;;;;;;;17.47;14.80;;;;;;;8.54;60.79;99745.47;4141249;28;20332;-68
2022/03/28 05:10:03;;;;;;;20.90;14.17;;;;;;;8.63;60.64;99731.34;4141370;28;20260;-67
2022/03/28 05:12:06;;;;;;;19.63;14.97;;;;;;;8.15;61.41;99740.28;4140779;28;20705;-67
2022/03/28 05:14:08;;;;;;;17.83;14.53;;;;;;;8.57;60.48;99735.41;4141573;28;20311;-68
2022/03/28 05:16:10;;;;;;;18.90;14.77;;;;;;;11.08;51.98;99658.03;4146650;28;20264;-67
2022/03/28 05:18:14;;;;;;;21.47;15.13;;;;;;;9.61;54.67;99760.75;4143256;28;20317;-68
2022/03/28 05:20:16;;;;;;;20.20;14.00;;;;;;;7.95;60.28;99753.56;4141268;28;20775;-68
2022/03/28 05:22:19;;;;;;;18.10;13.90;;;;;;;8.67;59.08;99716.81;4141908;28;20730;-68
2022/03/28 05:24:21;;;;;;;19.07;14.27;;;;;;;8.29;60.49;99739.81;4153308;28;20231;-68
2022/03/28 05:26:22;;;;;;;20.30;13.97;;;;;;;8.49;60.26;99731.81;4157551;28;20307;-68
2022/03/28 05:28:24;;;;;;;18.80;14.27;;;;;;;8.97;58.81;99724.63;4154117;28;20253;-68
2022/03/28 05:30:26;;;;;;;20.80;14.57;;;;;;;9.32;57.29;99731.78;4142078;28;20323;-67
2022/03/28 05:32:27;;;;;;;17.23;13.43;;;;;;;7.15;59.03;99792.53;4142962;28;20257;-68
2022/03/28 05:34:30;;;;;;;18.43;14.07;;;;;;;8.17;58.39;99706.53;4142735;28;20312;-68
2022/03/28 05:36:32;;;;;;;18.97;13.80;;;;;;;8.08;57.95;99744.47;4142374;28;20854;-68
2022/03/28 05:38:34;;;;;;;16.87;13.77;;;;;;;8.54;58.59;99700.41;4128868;28;20249;-69
2022/03/28 05:40:36;;;;;;;18.70;13.23;;;;;;;9.16;57.76;99703.25;4139009;28;20321;-70
2022/03/28 05:42:37;;;;;;;17.67;13.33;;;;;;;7.04;64.80;99730.03;4139803;28;20680;-68
2022/03/28 05:44:44;;;;;;;19.83;14.17;;;;;;;8.11;61.10;99728.31;4146651;28;20316;-67
2022/03/28 05:46:48;;;;;;;19.27;13.77;;;;;;;8.34;59.64;99734.97;4159223;28;20228;-68
2022/03/28 05:48:49;;;;;;;18.10;13.87;;;;;;;9.58;56.68;99701.81;4150813;28;20269;-67
2022/03/28 05:50:51;;;;;;;20.17;14.43;;;;;;;8.91;58.97;99747.25;4142158;28;20784;-67
2022/03/28 05:52:54;;;;;;;19.13;15.30;;;;;;;9.00;58.78;99745.50;4142898;28;21589;-68
2022/03/28 05:54:56;;;;;;;24.00;14.10;;;;;;;9.52;57.13;99708.56;4152034;28;20370;-67
2022/03/28 05:56:58;;;;;;;24.50;15.53;;;;;;;9.56;56.68;99719.72;4143226;28;20258;-69
2022/03/28 05:59:02;;;;;;;18.80;13.80;;;;;;;9.51;56.71;99734.25;4139370;28;20279;-67
2022/03/28 06:01:04;;;;;;;19.77;14.63;;;;;;;9.33;56.83;99752.84;4146366;28;20233;-68
2022/03/28 06:03:06;;;;;;;19.87;13.40;;;;;;;9.37;57.86;99726.00;4137344;28;20704;-68
2022/03/28 06:05:28;;;;;;;16.93;12.67;;;;;;;9.00;59.71;99724.28;4143076;28;20246;-68
2022/03/28 06:07:30;;;;;;;20.53;13.27;;;;;;;9.11;59.06;99762.06;4142409;28;20239;-70
2022/03/28 06:09:31;;;;;;;16.63;12.87;;;;;;;10.27;55.92;99694.00;4140849;28;20320;-69
2022/03/28 06:11:34;;;;;;;19.07;12.93;;;;;;;9.90;56.52;99737.59;4141635;28;20743;-68
2022/03/28 06:13:35;;;;;;;23.93;12.97;;;;;;;9.51;56.86;99762.63;4142105;28;20226;-69
2022/03/28 06:15:37;;;;;;;20.67;14.20;;;;;;;9.51;56.23;99755.50;4142523;28;20578;-68
2022/03/28 06:17:39;;;;;;;18.80;13.17;;;;;;;9.26;56.96;99783.59;4142697;28;20233;-69
2022/03/28 06:19:41;;;;;;;18.57;13.00;;;;;;;8.62;58.49;99814.50;4141971;28;20236;-69
2022/03/28 06:21:43;;;;;;;18.27;12.63;;;;;;;9.64;55.90;99741.88;4142636;28;20609;-68
2022/03/28 06:23:45;;;;;;;17.90;12.70;;;;;;;9.80;55.84;99741.16;4147166;28;20284;-69
2022/03/28 06:25:47;;;;;;;19.83;12.57;;;;;;;9.71;55.47;99757.22;4140376;28;20280;-69
2022/03/28 06:27:49;;;;;;;20.27;12.97;;;;;;;9.33;57.06;99771.44;4142135;28;20271;-68
2022/03/28 06:29:51;;;;;;;20.27;12.63;;;;;;;9.13;57.65;99797.25;4150407;28;20670;-68
2022/03/28 06:31:53;;;;;;;18.50;12.37;;;;;;;9.16;56.97;99785.50;4148769;28;20232;-68
2022/03/28 06:34:02;;;;;;;22.63;12.93;;;;;;;9.85;55.56;99744.19;4148973;28;20328;-68
2022/03/28 06:36:04;;;;;;;24.57;13.47;;;;;;;10.21;54.78;99735.28;4143092;28;20246;-69
2022/03/28 06:38:06;;;;;;;18.63;12.80;;;;;;;10.33;54.15;99725.22;4142195;28;20233;-69
2022/03/28 06:40:09;;;;;;;17.67;13.87;;;;;;;9.50;56.58;99782.19;4140716;28;20316;-69
2022/03/28 06:42:16;;;;;;;20.43;12.70;;;;;;;9.73;55.87;99755.22;4142952;28;20700;-69
2022/03/28 06:44:18;;;;;;;19.73;13.57;;;;;;;9.86;55.98;99753.84;4146729;28;20970;-70
2022/03/28 06:46:22;;;;;;;20.13;12.53;;;;;;;9.35;57.31;99805.75;4142732;28;20237;-68
2022/03/28 06:48:24;;;;;;;19.57;13.13;;;;;;;9.65;56.42;99777.22;4142476;28;20229;-68
2022/03/28 06:50:35;;;;;;;18.47;12.27;;;;;;;9.85;55.90;99767.25;4145942;28;20537;-68
2022/03/28 06:52:37;;;;;;;19.20;11.23;;;;;;;10.01;55.15;99758.56;4158796;28;20597;-68
2022/03/28 06:54:39;;;;;;;22.00;12.57;;;;;;;9.54;56.85;99796.84;4141868;28;20260;-70
2022/03/28 06:56:42;;;;;;;18.30;12.67;;;;;;;10.12;55.98;99757.50;4145127;28;20737;-71
2022/03/28 06:58:43;;;;;;;21.13;12.50;;;;;;;10.12;55.75;99753.00;4136733;28;20296;-68
2022/03/28 07:00:45;;;;;;;16.83;13.60;;;;;;;10.10;56.23;99757.66;4140801;28;20321;-69
2022/03/28 07:02:47;;;;;;;19.57;14.23;;;;;;;10.05;56.36;99762.59;4140476;28;20264;-68
2022/03/28 07:04:48;;;;;;;23.80;15.83;;;;;;;10.10;56.11;99756.84;4141552;28;20291;-68
2022/03/28 07:06:50;;;;;;;30.30;21.23;;;;;;;10.16;56.05;99765.00;4141981;28;20264;-68
2022/03/28 07:08:53;;;;;;;37.47;25.73;;;;;;;10.31;56.30;99741.31;4141632;28;20264;-68
2022/03/28 07:10:55;;;;;;;25.50;17.07;;;;;;;10.23;56.32;99768.72;4141491;28;20237;-69
2022/03/28 07:12:57;;;;;;;18.80;13.30;;;;;;;10.25;56.50;99765.91;4141703;28;20265;-69
2022/03/28 07:14:59;;;;;;;22.17;14.33;;;;;;;10.47;56.00;99743.25;4139884;28;20854;-69
2022/03/28 07:17:01;;;;;;;18.10;13.03;;;;;;;10.85;55.25;99729.66;4141867;28;20757;-70
2022/03/28 07:19:04;;;;;;;22.20;15.60;;;;;;;10.75;55.58;99713.78;4131884;28;20292;-67
2022/03/28 07:21:06;;;;;;;21.20;13.87;;;;;;;10.38;57.92;99750.38;4136623;28;20256;-70
2022/03/28 07:23:09;;;;;;;17.67;13.37;;;;;;;10.12;58.54;99771.63;4145546;28;20303;-69
2022/03/28 07:25:11;;;;;;;17.50;12.50;;;;;;;10.39;57.80;99744.03;4148625;28;20296;-68
2022/03/28 07:27:14;;;;;;;19.70;15.30;;;;;;;10.18;58.83;99756.88;4144059;28;20237;-67
2022/03/28 07:29:17;;;;;;;20.27;14.53;;;;;;;10.37;58.73;99750.53;4143234;28;20725;-67
2022/03/28 07:31:18;;;;;;;18.73;13.47;;;;;;;10.40;58.30;99756.34;4138678;28;20275;-68
2022/03/28 07:33:20;;;;;;;18.17;12.87;;;;;;;10.78;58.09;99740.09;4143620;28;20225;-68
2022/03/28 07:35:22;;;;;;;17.77;13.17;;;;;;;10.65;58.60;99731.69;4145081;28;20336;-69
2022/03/28 07:37:24;;;;;;;19.17;12.17;;;;;;;10.88;58.79;99727.50;4144977;28;20237;-68
2022/03/28 07:39:26;;;;;;;17.00;12.33;;;;;;;10.75;59.47;99721.75;4147581;28;20252;-68
2022/03/28 07:41:28;;;;;;;16.53;12.80;;;;;;;10.92;59.26;99715.56;4161041;28;20270;-67
2022/03/28 07:43:30;;;;;;;20.77;13.80;;;;;;;10.98;58.94;99714.88;4152534;28;20252;-68
2022/03/28 07:45:32;;;;;;;19.57;12.40;;;;;;;11.42;57.87;99695.16;4152760;28;20324;-68
2022/03/28 07:47:34;;;;;;;17.57;12.70;;;;;;;11.30;58.09;99689.31;4144100;28;20232;-68
2022/03/28 07:49:37;;;;;;;18.97;13.73;;;;;;;11.23;57.63;99704.28;4146496;28;20265;-68
2022/03/28 07:51:39;;;;;;;17.43;13.87;;;;;;;11.39;57.82;99707.97;4144969;28;20242;-69
2022/03/28 07:53:41;;;;;;;17.93;13.73;;;;;;;11.63;58.48;99693.81;4144347;28;20325;-69
2022/03/28 07:55:43;;;;;;;18.70;14.03;;;;;;;11.05;59.75;99704.41;4142792;28;20233;-69
2022/03/28 07:57:45;;;;;;;20.30;14.00;;;;;;;11.41;58.56;99692.66;4146299;28;20233;-69
2022/03/28 07:59:47;;;;;;;18.33;13.07;;;;;;;11.76;57.87;99686.16;4153889;28;20279;-69
2022/03/28 08:02:10;;;;;;;18.63;13.73;;;;;;;11.86;57.99;99670.84;4147663;28;20237;-67
2022/03/28 08:04:12;;;;;;;17.30;14.40;;;;;;;11.87;57.91;99671.69;4143116;28;20237;-69
2022/03/28 08:06:14;;;;;;;18.90;14.37;;;;;;;11.96;57.79;99664.50;4138853;28;20244;-69
2022/03/28 08:08:15;;;;;;;26.50;14.13;;;;;;;11.83;56.50;99670.31;4143971;28;20694;-68
2022/03/28 08:10:18;;;;;;;17.23;13.17;;;;;;;12.23;55.47;99663.25;4144307;28;20265;-69
2022/03/28 08:12:19;;;;;;;19.53;13.53;;;;;;;12.01;56.33;99657.66;4144322;28;20299;-69
2022/03/28 08:14:21;;;;;;;17.40;13.57;;;;;;;12.13;55.99;99666.13;4143483;28;20327;-69
2022/03/28 08:16:22;;;;;;;15.17;11.80;;;;;;;11.88;55.78;99668.00;4142859;28;20245;-69
2022/03/28 08:18:26;;;;;;;20.27;13.27;;;;;;;12.29;55.29;99663.41;4146824;28;20225;-69
2022/03/28 08:20:28;;;;;;;18.27;13.03;;;;;;;12.56;54.41;99641.81;4156866;28;20260;-69
2022/03/28 08:22:30;;;;;;;16.37;12.23;;;;;;;11.28;56.58;99693.16;4148711;28;20267;-69
2022/03/28 08:24:32;;;;;;;20.27;13.67;;;;;;;11.57;57.54;99691.84;4143766;28;20234;-68
2022/03/28 08:26:33;;;;;;;19.40;13.77;;;;;;;12.33;55.87;99663.88;4148012;28;20720;-69
2022/03/28 08:28:35;;;;;;;17.77;12.97;;;;;;;12.78;55.18;99630.34;4154003;28;20237;-68
2022/03/28 08:30:37;;;;;;;19.13;12.80;;;;;;;12.85;52.83;99630.47;4146790;28;20776;-69
2022/03/28 08:32:41;;;;;;;19.80;12.77;;;;;;;12.52;54.25;99635.16;4144260;28;20268;-69
2022/03/28 08:34:46;;;;;;;18.13;11.83;;;;;;;12.84;53.06;99642.97;4143394;28;20874;-69
2022/03/28 08:36:48;;;;;;;16.93;12.00;;;;;;;12.60;53.25;99653.78;4144373;28;20625;-69
2022/03/28 08:38:50;;;;;;;17.73;12.00;;;;;;;12.73;52.92;99654.03;4144212;28;20245;-70
2022/03/28 08:40:52;;;;;;;18.23;11.40;;;;;;;12.62;51.91;99633.94;4143484;28;20296;-69
2022/03/28 08:42:54;;;;;;;16.93;11.83;;;;;;;13.12;50.81;99638.97;4143203;28;20253;-67
2022/03/28 08:44:56;;;;;;;16.70;11.33;;;;;;;12.35;51.84;99666.38;4150999;28;20264;-67
2022/03/28 08:46:58;;;;;;;18.53;11.47;;;;;;;12.63;52.08;99658.78;4143236;28;20327;-67
2022/03/28 08:49:00;;;;;;;17.27;11.87;;;;;;;13.03;52.38;99657.72;4143693;28;20268;-67
2022/03/28 08:51:02;;;;;;;16.57;10.90;;;;;;;13.33;51.25;99631.16;4136564;28;20319;-67
2022/03/28 08:53:05;;;;;;;15.87;11.03;;;;;;;12.99;51.62;99634.22;4143269;28;20488;-68
2022/03/28 08:55:09;;;;;;;15.87;11.37;;;;;;;13.46;49.94;99621.69;4132431;28;20257;-67
2022/03/28 08:57:15;;;;;;;14.53;10.47;;;;;;;13.91;48.78;99607.38;4162414;28;20283;-68
2022/03/28 08:59:19;;;;;;;13.90;10.23;;;;;;;13.32;50.34;99617.97;4150187;28;20242;-69
2022/03/28 09:01:23;;;;;;;18.07;10.80;;;;;;;13.42;49.98;99623.06;4137129;28;20718;-68
2022/03/28 09:03:37;;;;;;;16.70;11.33;;;;;;;13.26;50.04;99632.03;4141759;28;20312;-68
2022/03/28 09:05:40;;;;;;;15.90;10.63;;;;;;;13.46;49.83;99635.84;4139061;28;20375;-67
2022/03/28 09:07:42;;;;;;;18.83;11.10;;;;;;;13.76;49.16;99625.22;4142894;28;20275;-67
2022/03/28 09:09:44;;;;;;;18.20;12.30;;;;;;;13.86;49.27;99608.97;4143181;28;20241;-67
2022/03/28 09:11:51;;;;;;;17.33;11.30;;;;;;;13.91;49.11;99626.09;4143932;28;20268;-69
2022/03/28 09:13:53;;;;;;;17.13;11.87;;;;;;;14.01;49.07;99606.28;4141310;28;20888;-68
2022/03/28 09:15:57;;;;;;;20.63;11.53;;;;;;;13.24;50.33;99650.06;4149853;28;20607;-69
2022/03/28 09:17:59;;;;;;;17.33;11.93;;;;;;;13.77;49.45;99624.22;4142974;28;20280;-69
2022/03/28 09:20:05;;;;;;;14.97;11.13;;;;;;;14.24;49.50;99588.28;4143145;28;20321;-69
2022/03/28 09:22:23;;;;;;;18.80;12.10;;;;;;;13.37;50.06;99643.13;4130789;28;20283;-68
2022/03/28 09:24:30;;;;;;;16.53;11.77;;;;;;;14.15;49.17;99598.22;4142743;28;20241;-69
2022/03/28 09:26:32;;;;;;;17.23;11.07;;;;;;;14.38;48.66;99593.78;4142978;28;20280;-70